Data for 06/07/2013

Time Sea-Level Adjusted Pressure Absolute Pressure Temperature Relative Humidity Dew Point   
(mb) (inHg) (mb) (inHg) (C) (F) (%) (C) (F)
00:05 1019 30.09 848 25.04 15.2 59.4 63 8.3 46.9
00:10 1019 30.09 848 25.04 15.1 59.1 63 8.3 46.9
00:15 1019 30.09 848 25.04 14.9 58.8 64 8.1 46.6
00:20 1019 30.09 848 25.04 14.7 58.5 64 8.2 46.7
00:25 1019 30.09 848 25.04 14.6 58.3 65 8.1 46.6
00:30 1019 30.09 848 25.04 14.5 58.2 65 8.1 46.6
00:35 1019 30.09 848 25.04 14.6 58.3 64 8.1 46.5
00:40 1019 30.09 848 25.04 14.6 58.3 65 8.1 46.6
00:45 1019 30.09 848 25.04 14.4 58 65 8.1 46.6
00:50 1019 30.09 848 25.04 14.4 57.9 66 8.1 46.6
00:55 1019 30.09 848 25.04 14.3 57.7 66 8.1 46.6
01:00 1019 30.09 848 25.04 14.2 57.5 66 8.1 46.6
01:05 1019 30.09 848 25.04 14 57.2 68 8.2 46.7
01:10 1019 30.09 848 25.04 13.9 57.1 69 8.3 46.9
01:15 1018 30.06 848 25.04 13.9 57 68 8.2 46.7
01:20 1018 30.06 848 25.04 13.8 56.8 69 8.2 46.7
01:25 1018 30.06 848 25.04 13.7 56.7 68 8 46.5
01:30 1018 30.06 848 25.04 13.7 56.6 69 8.1 46.5
01:35 1018 30.06 848 25.04 13.6 56.5 69 8 46.4
01:40 1018 30.06 848 25.04 13.5 56.4 68 7.8 46
01:45 1018 30.06 847 25.01 13.5 56.3 69 7.9 46.3
01:50 1018 30.06 847 25.01 13.4 56.1 70 8 46.5
01:55 1018 30.06 847 25.01 13.2 55.7 70 7.8 46.1
02:00 1018 30.06 847 25.01 13.1 55.6 70 7.8 46.1
02:05 1018 30.06 847 25.01 12.8 55.1 71 7.8 46
02:10 1018 30.06 847 25.01 12.6 54.8 71 7.5 45.5
02:15 1018 30.06 847 25.01 12.7 54.9 69 7.3 45.2
02:20 1018 30.06 848 25.04 12.9 55.2 65 6.6 43.9
02:25 1018 30.06 847 25.01 12.9 55.2 61 5.6 42.1
02:30 1018 30.06 847 25.01 12.9 55.2 62 5.9 42.7
02:35 1018 30.06 847 25.01 13 55.3 63 6.2 43.1
02:40 1018 30.06 847 25.01 12.6 54.6 64 6.1 43
02:45 1018 30.06 847 25.01 12.3 54.1 64 5.8 42.4
02:50 1018 30.06 847 25.01 12.3 54.1 61 5.1 41.2
02:55 1018 30.06 847 25.01 12.2 53.9 61 4.9 40.7
03:00 1018 30.06 847 25.01 12 53.7 62 5 41
03:05 1018 30.06 847 25.01 12.2 54 63 5.3 41.6
03:10 1018 30.06 847 25.01 12.3 54.1 61 5 41.1
03:15 1018 30.06 847 25.01 12.3 54.1 61 5.1 41.2
03:20 1018 30.06 847 25.01 12.1 53.8 63 5.3 41.6
03:25 1018 30.06 847 25.01 11.7 53.1 65 5.4 41.7
03:30 1018 30.06 847 25.01 11.4 52.5 66 5.4 41.7
03:35 1018 30.06 847 25.01 11.4 52.5 67 5.5 41.9
03:40 1018 30.06 847 25.01 11.5 52.8 67 5.7 42.3
03:45 1018 30.06 847 25.01 11.5 52.7 68 5.9 42.6
03:50 1018 30.06 847 25.01 11.5 52.7 69 6 42.8
03:55 1018 30.06 847 25.01 11.5 52.6 69 6 42.7
04:00 1018 30.06 847 25.01 11.3 52.4 70 6.1 42.9
04:05 1018 30.06 847 25.01 11.3 52.3 70 6 42.8
04:10 1018 30.06 847 25.01 11.3 52.4 69 6 42.7
04:15 1018 30.06 847 25.01 11.6 52.8 68 5.9 42.6
04:20 1018 30.06 847 25.01 11.5 52.8 67 5.8 42.4
04:25 1018 30.06 847 25.01 11.3 52.4 68 5.6 42.1
04:30 1018 30.06 847 25.01 11.4 52.6 67 5.6 42
04:35 1018 30.06 847 25.01 11.3 52.4 67 5.4 41.7
04:40 1018 30.06 847 25.01 11.3 52.3 66 5.2 41.4
04:45 1018 30.06 847 25.01 11.3 52.3 65 5 41.1
04:50 1018 30.06 847 25.01 11.4 52.5 63 4.7 40.5
04:55 1018 30.06 847 25.01 11.8 53.2 60 4.3 39.8
05:00 1018 30.06 847 25.01 11.8 53.2 60 4.4 39.9
05:05 1018 30.06 847 25.01 11.5 52.7 61 4.4 39.9
05:10 1018 30.06 847 25.01 11.3 52.4 62 4.3 39.7
05:15 1018 30.06 847 25.01 11.4 52.6 59 3.8 38.9
05:20 1018 30.06 847 25.01 11.7 53.1 58 3.7 38.7
05:25 1018 30.06 847 25.01 12 53.5 57 3.8 38.9
05:30 1018 30.06 847 25.01 12.2 53.9 57 4.1 39.3
05:35 1018 30.06 847 25.01 12.4 54.3 59 4.5 40.2
05:40 1018 30.06 847 25.01 12.5 54.5 59 4.8 40.7
05:45 1018 30.06 847 25.01 12.6 54.7 59 4.9 40.8
05:50 1018 30.06 847 25.01 12.7 54.8 60 5.1 41.3
05:55 1018 30.06 847 25.01 12.9 55.2 59 5.2 41.4
06:00 1018 30.06 847 25.01 12.9 55.3 61 5.7 42.2
06:05 1018 30.06 847 25.01 13.3 55.9 60 5.8 42.5
06:10 1018 30.06 847 25.01 13.4 56.1 58 5.5 41.8
06:15 1018 30.06 847 25.01 13.5 56.3 57 5.3 41.6
06:20 1018 30.06 847 25.01 13.9 57 58 5.9 42.6
06:25 1018 30.06 848 25.04 13.9 57 57 5.5 41.9
06:30 1018 30.06 848 25.04 13.9 56.9 58 5.7 42.3
06:35 1018 30.06 848 25.04 13.7 56.6 57 5.4 41.8
06:40 1018 30.06 848 25.04 13.6 56.5 59 5.9 42.6
06:45 1018 30.06 848 25.04 13.6 56.5 59 5.9 42.6
06:50 1018 30.06 848 25.04 13.7 56.7 57 5.5 41.8
06:55 1018 30.06 848 25.04 13.8 56.9 57 5.5 41.8
07:00 1018 30.06 848 25.04 14.1 57.5 56 5.5 41.9
07:05 1018 30.06 848 25.04 14.1 57.5 57 5.8 42.5
07:10 1018 30.06 848 25.04 14.3 57.7 57 5.8 42.5
07:15 1018 30.06 848 25.04 15 58.9 56 6.2 43.2
07:20 1018 30.06 847 25.01 15 59 57 6.7 44.1
07:25 1018 30.06 847 25.01 15 59.1 57 6.7 44
07:30 1018 30.06 847 25.01 14.9 58.8 59 7 44.7
07:35 1018 30.06 847 25.01 14.8 58.6 58 6.8 44.2
07:40 1018 30.06 847 25.01 15.1 59.3 58 7 44.6
07:45 1018 30.06 847 25.01 15 59 59 7.2 44.9
07:50 1018 30.06 847 25.01 15 58.9 59 7 44.7
07:55 1018 30.06 847 25.01 15.7 60.3 57 7.2 44.9
08:00 1018 30.06 847 25.01 16.8 62.2 51 6.8 44.2
08:05 1018 30.06 847 25.01 17.7 63.8 49 6.9 44.4
08:10 1018 30.06 847 25.01 18.2 64.8 47 6.8 44.2
08:15 1018 30.06 847 25.01 18.9 66 45 6.8 44.3
08:20 1018 30.06 847 25.01 19.3 66.7 47 7.8 46
08:25 1018 30.06 847 25.01 19.7 67.4 42 6.6 43.8
08:30 1018 30.06 847 25.01 19.6 67.3 47 8.2 46.7
08:35 1018 30.06 847 25.01 19.5 67 43 6.9 44.3
08:40 1018 30.06 847 25.01 19.6 67.4 46 7.7 45.9
08:45 1018 30.06 847 25.01 19.5 67.1 43 6.9 44.4
08:50 1017 30.03 847 25.01 19.7 67.5 44 7.2 44.9
08:55 1017 30.03 847 25.01 20 67.9 39 5.8 42.5
09:00 1017 30.03 847 25.01 20.4 68.6 36 4.9 40.9
09:05 1017 30.03 847 25.01 20.4 68.7 35 4.7 40.4
09:10 1017 30.03 847 25.01 20.7 69.3 35 4.7 40.5
09:15 1017 30.03 847 25.01 20.9 69.5 36 5.5 41.9
09:20 1017 30.03 847 25.01 21.1 70 30 3.2 37.7
09:25 1017 30.03 847 25.01 21.7 71.1 31 3.8 38.9
09:30 1017 30.03 846 24.98 22.5 72.4 30 4.4 39.9
09:35 1017 30.03 846 24.98 22.5 72.5 31 4.6 40.3
09:40 1017 30.03 846 24.98 22.3 72.1 31 4.7 40.4
09:45 1017 30.03 847 25.01 21.5 70.8 33 4.9 40.9
09:50 1017 30.03 847 25.01 21.3 70.4 33 4.8 40.6
09:55 1017 30.03 847 25.01 21.2 70.2 33 4.5 40.2
10:00 1017 30.03 847 25.01 21.3 70.3 33 4.7 40.4
10:05 1017 30.03 847 25.01 21.7 71 33 5.1 41.1
10:10 1017 30.03 847 25.01 22.1 71.8 34 5.7 42.2
10:15 1017 30.03 847 25.01 22.2 71.9 33 5.5 41.9
10:20 1017 30.03 846 24.98 22.3 72.1 31 4.7 40.4
10:25 1017 30.03 846 24.98 22.4 72.3 31 4.7 40.5
10:30 1017 30.03 846 24.98 22.5 72.4 30 4.5 40
10:35 1017 30.03 846 24.98 22.8 73 31 5.1 41.2
10:40 1017 30.03 846 24.98 23.2 73.7 32 5.9 42.5
10:45 1017 30.03 846 24.98 22.5 72.4 33 5.5 41.8
10:50 1017 30.03 846 24.98 22.2 71.9 33 5.2 41.3
10:55 1017 30.03 846 24.98 22.4 72.4 34 5.8 42.5
11:00 1017 30.03 846 24.98 22.6 72.7 33 5.6 42.1
11:05 1017 30.03 846 24.98 22.4 72.4 35 6.3 43.3
11:10 1017 30.03 846 24.98 22.5 72.6 33 5.5 41.9
11:15 1017 30.03 846 24.98 22.9 73.2 33 5.9 42.6
11:20 1016 30 846 24.98 23.2 73.8 33 6.3 43.3
11:25 1016 30 846 24.98 23.7 74.6 31 5.8 42.5
11:30 1016 30 846 24.98 23.5 74.3 31 5.5 41.8
11:35 1016 30 846 24.98 23.2 73.8 32 5.7 42.3
11:40 1016 30 845 24.95 23.4 74.1 30 5.1 41.2
11:45 1016 30 845 24.95 23.5 74.3 28 4 39.2
11:50 1016 30 845 24.95 23.7 74.6 28 4.5 40.1
11:55 1016 30 845 24.95 24.4 75.9 27 4.5 40.1
12:00 1016 30 845 24.95 24.1 75.3 29 5.3 41.5
12:05 1016 30 845 24.95 24.1 75.3 30 5.6 42.1
12:10 1016 30 845 24.95 23.7 74.7 31 5.6 42.2
12:15 1016 30 845 24.95 23.6 74.5 31 5.6 42.1
12:20 1016 30 845 24.95 23.4 74.2 30 5.3 41.6
12:25 1016 30 845 24.95 23.9 75 30 5.7 42.3
12:30 1016 30 845 24.95 24.3 75.8 28 4.9 40.8
12:35 1016 30 845 24.95 23.7 74.7 30 5.2 41.3
12:40 1016 30 845 24.95 24.6 76.3 29 5.4 41.8
12:45 1016 30 845 24.95 24.3 75.8 28 4.7 40.5
12:50 1016 30 845 24.95 23.8 74.8 28 4.5 40
12:55 1016 30 845 24.95 24 75.1 28 4.8 40.7
13:00 1015 29.97 845 24.95 24.4 76 28 5.1 41.2
13:05 1015 29.97 845 24.95 24.4 76 30 5.8 42.4
13:10 1015 29.97 844 24.92 24.5 76.1 29 5.5 41.9
13:15 1015 29.97 844 24.92 24.4 76 28 5.1 41.3
13:20 1015 29.97 844 24.92 24.8 76.6 27 4.7 40.5
13:25 1015 29.97 844 24.92 25.3 77.6 27 5.2 41.4
13:30 1015 29.97 844 24.92 25.7 78.2 27 5.4 41.7
13:35 1015 29.97 844 24.92 25.4 77.7 27 5.3 41.5
13:40 1015 29.97 844 24.92 25.1 77.2 28 5.3 41.6
13:45 1015 29.97 844 24.92 24.9 76.7 27 4.7 40.4
13:50 1015 29.97 844 24.92 25.1 77.2 27 5.1 41.1
13:55 1015 29.97 844 24.92 24.9 76.8 27 5 41.1
14:00 1015 29.97 844 24.92 24.9 76.8 27 4.9 40.8
14:05 1015 29.97 844 24.92 25.1 77.2 27 5 41
14:10 1015 29.97 844 24.92 24.9 76.8 27 5 41
14:15 1015 29.97 844 24.92 24.9 76.8 28 5.2 41.4
14:20 1014 29.94 844 24.92 24.8 76.7 28 5.3 41.6
14:25 1014 29.94 844 24.92 25.1 77.2 27 4.9 40.8
14:30 1014 29.94 844 24.92 25.2 77.4 27 4.9 40.9
14:35 1014 29.94 844 24.92 25.4 77.6 27 5 41
14:40 1014 29.94 843 24.89 25.4 77.7 27 5.1 41.1
14:45 1014 29.94 843 24.89 25.2 77.4 28 5.6 42.1
14:50 1014 29.94 843 24.89 25.2 77.4 28 5.5 41.9
14:55 1014 29.94 843 24.89 25.4 77.8 27 5.3 41.5
15:00 1014 29.94 843 24.89 25.2 77.4 27 5.2 41.4
15:05 1014 29.94 843 24.89 25.7 78.2 26 5.2 41.4
15:10 1014 29.94 843 24.89 25.3 77.6 27 5.1 41.2
15:15 1014 29.94 843 24.89 25.9 78.6 25 4.8 40.7
15:20 1014 29.94 843 24.89 25.9 78.6 25 4.6 40.2
15:25 1014 29.94 843 24.89 27 80.6 23 4.4 40
15:30 1013 29.91 843 24.89 26.8 80.2 26 5.9 42.5
15:35 1013 29.91 843 24.89 26.3 79.3 26 5.4 41.7
15:40 1013 29.91 842 24.86 25.6 78.1 28 6.1 43
15:45 1013 29.91 842 24.86 25.5 77.8 28 5.7 42.2
15:50 1013 29.91 842 24.86 25.5 78 29 6.2 43.2
15:55 1013 29.91 842 24.86 24.7 76.4 30 6.2 43.2
16:00 1013 29.91 842 24.86 24.9 76.9 29 6 42.7
16:05 1013 29.91 842 24.86 25.4 77.8 29 6.2 43.2
16:10 1013 29.91 842 24.86 24.9 76.9 30 6.3 43.3
16:15 1013 29.91 842 24.86 24.6 76.2 30 6.2 43.2
16:20 1013 29.91 842 24.86 25 77 29 6.1 42.9
16:25 1013 29.91 842 24.86 25.3 77.5 28 5.8 42.5
16:30 1013 29.91 842 24.86 25.1 77.2 29 6.1 43
16:35 1013 29.91 842 24.86 25 76.9 29 6.2 43.1
16:40 1013 29.91 842 24.86 24.7 76.5 30 6.4 43.6
16:45 1013 29.91 842 24.86 24.5 76.1 31 6.6 43.9
16:50 1013 29.91 842 24.86 24.3 75.7 32 6.6 43.9
16:55 1013 29.91 842 24.86 24.4 76 31 6.6 43.9
17:00 1013 29.91 842 24.86 24.4 76 33 7.2 45
17:05 1013 29.91 842 24.86 24.2 75.5 34 7.4 45.3
17:10 1013 29.91 842 24.86 24.2 75.5 34 7.7 45.8
17:15 1013 29.91 842 24.86 24 75.3 36 8.3 46.9
17:20 1012 29.88 842 24.86 24 75.2 38 9 48.2
17:25 1012 29.88 842 24.86 24 75.2 38 9.2 48.5
17:30 1012 29.88 842 24.86 23.8 74.9 39 9.2 48.6
17:35 1012 29.88 841 24.83 23.9 75 37 8.7 47.7
17:40 1012 29.88 841 24.83 23.9 75.1 36 8.3 47
17:45 1012 29.88 841 24.83 24 75.1 37 8.6 47.4
17:50 1012 29.88 842 24.86 23.9 74.9 37 8.4 47
17:55 1012 29.88 842 24.86 23.7 74.7 34 7.2 45
18:00 1012 29.88 842 24.86 23.6 74.4 34 7.2 45
18:05 1012 29.88 842 24.86 23.4 74 36 7.7 45.8
18:10 1012 29.88 842 24.86 23 73.4 37 7.8 46
18:15 1012 29.88 842 24.86 22.9 73.3 38 8.1 46.6
18:20 1012 29.88 842 24.86 23 73.4 37 7.7 45.9
18:25 1012 29.88 842 24.86 23 73.4 37 7.6 45.6
18:30 1012 29.88 842 24.86 23.1 73.5 37 7.6 45.7
18:35 1012 29.88 842 24.86 23.2 73.7 36 7.4 45.3
18:40 1012 29.88 841 24.83 23.1 73.6 34 6.7 44
18:45 1012 29.88 841 24.83 23 73.5 33 6.2 43.2
18:50 1012 29.88 842 24.86 23 73.4 34 6.4 43.5
18:55 1012 29.88 842 24.86 22.9 73.2 34 6.3 43.4
19:00 1012 29.88 842 24.86 22.9 73.1 35 6.9 44.4
19:05 1012 29.88 842 24.86 22.7 72.8 36 7 44.6
19:10 1012 29.88 842 24.86 22.5 72.5 37 7.3 45.2
19:15 1013 29.91 842 24.86 22.5 72.5 38 7.6 45.7
19:20 1013 29.91 842 24.86 22.3 72.1 39 7.9 46.2
19:25 1013 29.91 842 24.86 22.2 71.9 38 7.3 45.2
19:30 1013 29.91 842 24.86 22.1 71.7 38 7.4 45.2
19:35 1013 29.91 842 24.86 22 71.5 38 7.1 44.7
19:40 1013 29.91 842 24.86 21.9 71.4 39 7.3 45.2
19:45 1013 29.91 842 24.86 21.8 71.2 38 7 44.6
19:50 1013 29.91 842 24.86 21.7 71 43 8.6 47.5
19:55 1013 29.91 842 24.86 21.2 70.1 46 9.3 48.7
20:00 1013 29.91 842 24.86 20.8 69.4 45 8.4 47.1
20:05 1013 29.91 842 24.86 20.7 69.2 43 7.9 46.3
20:10 1013 29.91 842 24.86 20.6 69.2 41 7.1 44.9
20:15 1013 29.91 842 24.86 20.6 69 39 6.2 43.2
20:20 1013 29.91 842 24.86 20.4 68.8 36 5 41
20:25 1013 29.91 842 24.86 20.4 68.7 34 4.3 39.7
20:30 1013 29.91 842 24.86 20.3 68.5 34 3.9 39.1
20:35 1013 29.91 842 24.86 20.1 68.2 33 3.6 38.4
20:40 1013 29.91 842 24.86 20 68 33 3.4 38
20:45 1013 29.91 842 24.86 20.1 68.1 31 2.3 36.2
20:50 1013 29.91 842 24.86 20.2 68.4 30 2.2 35.9
20:55 1013 29.91 842 24.86 20.2 68.3 31 2.5 36.5
21:00 1013 29.91 842 24.86 19.9 67.7 32 2.6 36.8
21:05 1013 29.91 843 24.89 19.6 67.3 33 2.9 37.2
21:10 1014 29.94 843 24.89 19.4 67 32 2.6 36.8
21:15 1014 29.94 843 24.89 19.5 67.1 32 2.6 36.7
21:20 1014 29.94 843 24.89 19.6 67.2 33 2.8 37.1
21:25 1014 29.94 843 24.89 19.6 67.2 33 3 37.4
21:30 1014 29.94 843 24.89 19.5 67 33 3 37.4
21:35 1014 29.94 843 24.89 19.4 66.8 34 3.2 37.8
21:40 1014 29.94 843 24.89 19.2 66.6 35 3.5 38.2
21:45 1014 29.94 843 24.89 19.1 66.3 35 3.5 38.3
21:50 1014 29.94 843 24.89 19 66.1 36 3.7 38.7
21:55 1014 29.94 843 24.89 18.9 66 37 4 39.2
22:00 1014 29.94 844 24.92 18.7 65.7 37 4 39.2
22:05 1014 29.94 844 24.92 18.6 65.5 39 4.4 40
22:10 1014 29.94 844 24.92 18.4 65.2 41 4.9 40.8
22:15 1014 29.94 843 24.89 18.1 64.6 41 4.6 40.3
22:20 1014 29.94 844 24.92 17.9 64.2 42 4.8 40.7
22:25 1014 29.94 844 24.92 17.8 64 42 4.9 40.9
22:30 1014 29.94 844 24.92 17.6 63.7 43 4.9 40.9
22:35 1015 29.97 844 24.92 17.6 63.6 43 4.8 40.7
22:40 1015 29.97 844 24.92 17.6 63.6 43 4.9 40.9
22:45 1015 29.97 844 24.92 17.5 63.4 42 4.6 40.3
22:50 1015 29.97 844 24.92 17.4 63.3 43 4.8 40.6
22:55 1015 29.97 844 24.92 17.3 63.1 43 4.6 40.3
23:00 1015 29.97 844 24.92 17.2 62.9 43 4.6 40.3
23:05 1015 29.97 844 24.92 17 62.7 43 4.5 40.1
23:10 1015 29.97 844 24.92 16.9 62.5 43 4.4 39.9
23:15 1015 29.97 844 24.92 16.7 62.1 44 4.6 40.2
23:20 1015 29.97 844 24.92 16.6 61.8 45 4.6 40.3
23:25 1015 29.97 844 24.92 16.4 61.6 44 4.3 39.7
23:30 1015 29.97 844 24.92 16.3 61.3 44 4.1 39.4
23:35 1015 29.97 844 24.92 16.3 61.3 43 3.9 39.1
23:40 1015 29.97 845 24.95 16.3 61.3 44 4.1 39.3
23:45 1015 29.97 845 24.95 16.3 61.3 44 4 39.2
23:50 1016 30 845 24.95 16.3 61.3 44 4 39.2
23:55 1016 30 845 24.95 16.3 61.4 43 4 39.1
24:00 1016 30 845 24.95 16.3 61.4 44 4.1 39.4